createdAt,value
2023-09-16T00:00:47.647Z,93767.34
2023-09-16T00:03:15.675Z,93765.41
2023-09-16T00:05:44.203Z,93767.34
2023-09-16T00:08:11.591Z,93756.66
2023-09-16T00:10:40.522Z,93747.66
2023-09-16T00:13:08.867Z,93746.84
2023-09-16T00:15:36.224Z,93736.78
2023-09-16T00:18:04.268Z,93733.91
2023-09-16T00:20:31.728Z,93744.06
2023-09-16T00:22:59.213Z,93746.72
2023-09-16T00:25:27.609Z,93746.41
2023-09-16T00:27:56.029Z,93740.56
2023-09-16T00:30:23.599Z,93736.09
2023-09-16T00:32:51.312Z,93739.00
2023-09-16T00:35:20.948Z,93741.88
2023-09-16T00:37:48.383Z,93732.50
2023-09-16T00:40:16.279Z,93733.28
2023-09-16T00:42:43.686Z,93737.78
2023-09-16T00:45:12.005Z,93742.69
2023-09-16T00:47:43.445Z,93742.97
2023-09-16T00:50:14.250Z,93733.72
2023-09-16T00:52:55.076Z,93730.28
2023-09-16T00:55:23.420Z,93735.37
2023-09-16T00:57:53.970Z,93736.59
2023-09-16T01:00:25.104Z,93739.50
2023-09-16T01:02:52.776Z,93733.84
2023-09-16T01:05:20.521Z,93738.53
2023-09-16T01:07:48.132Z,93732.16
2023-09-16T01:10:16.437Z,93736.34
2023-09-16T01:12:44.240Z,93735.28
2023-09-16T01:15:14.413Z,93741.78
2023-09-16T01:17:58.501Z,93744.22
2023-09-16T01:20:26.786Z,93739.72
2023-09-16T01:22:54.828Z,93738.19
2023-09-16T01:25:26.468Z,93731.88
2023-09-16T01:27:54.178Z,93730.59
2023-09-16T01:30:22.223Z,93727.44
2023-09-16T01:33:06.363Z,93725.34
2023-09-16T01:35:39.772Z,93726.66
2023-09-16T01:38:11.917Z,93724.75
2023-09-16T01:40:40.902Z,93723.72
2023-09-16T01:43:09.768Z,93715.78
2023-09-16T01:45:44.644Z,93716.66
2023-09-16T01:48:12.790Z,93711.09
2023-09-16T01:50:40.039Z,93717.97
2023-09-16T01:53:08.699Z,93715.59
2023-09-16T01:55:39.201Z,93718.53
2023-09-16T01:58:09.669Z,93723.81
2023-09-16T02:00:37.724Z,93726.97
2023-09-16T02:03:05.658Z,93725.88
2023-09-16T02:05:33.243Z,93723.72
2023-09-16T02:08:01.255Z,93715.22
2023-09-16T02:10:29.659Z,93717.12
2023-09-16T02:12:57.080Z,93716.66
2023-09-16T02:15:25.033Z,93717.97
2023-09-16T02:17:52.793Z,93717.94
2023-09-16T02:20:20.233Z,93722.69
2023-09-16T02:22:48.315Z,93722.75
2023-09-16T02:25:16.939Z,93719.81
2023-09-16T02:27:44.276Z,93730.13
2023-09-16T02:30:13.426Z,93728.50
2023-09-16T02:32:40.834Z,93725.81
2023-09-16T02:35:08.320Z,93731.16
2023-09-16T02:37:36.026Z,93722.63
2023-09-16T02:40:03.973Z,93719.69
2023-09-16T02:42:31.765Z,93720.97
2023-09-16T02:45:00.017Z,93729.97
2023-09-16T02:47:29.323Z,93732.66
2023-09-16T02:49:57.787Z,93731.56
2023-09-16T02:52:25.989Z,93744.56
2023-09-16T02:54:53.348Z,93733.84
2023-09-16T02:57:20.744Z,93735.19
2023-09-16T02:59:49.051Z,93730.69
2023-09-16T03:02:17.351Z,93732.72
2023-09-16T03:04:44.886Z,93740.12
2023-09-16T03:07:12.556Z,93746.62
2023-09-16T03:09:40.320Z,93746.19
2023-09-16T03:12:12.038Z,93752.13
2023-09-16T03:14:40.080Z,93754.81
2023-09-16T03:17:07.577Z,93755.78
2023-09-16T03:19:35.996Z,93754.72
2023-09-16T03:22:03.865Z,93761.19
2023-09-16T03:24:31.647Z,93757.47
2023-09-16T03:26:59.072Z,93771.22
2023-09-16T03:29:27.433Z,93769.13
2023-09-16T03:31:54.982Z,93768.34
2023-09-16T03:34:22.421Z,93768.34
2023-09-16T03:36:50.424Z,93772.22
2023-09-16T03:39:18.377Z,93782.72
2023-09-16T03:41:45.913Z,93775.56
2023-09-16T03:44:15.672Z,93774.47
2023-09-16T03:46:43.762Z,93780.81
2023-09-16T03:49:11.427Z,93785.00
2023-09-16T03:51:40.334Z,93780.81
2023-09-16T03:54:08.116Z,93786.69
2023-09-16T03:56:35.886Z,93787.88
2023-09-16T03:59:03.620Z,93793.47
2023-09-16T04:01:31.447Z,93793.53
2023-09-16T04:03:59.841Z,93798.84
2023-09-16T04:06:27.903Z,93798.53
2023-09-16T04:08:56.118Z,93808.81
2023-09-16T04:11:23.972Z,93811.22
2023-09-16T04:13:51.643Z,93815.00
2023-09-16T04:16:19.891Z,93814.69
2023-09-16T04:18:47.977Z,93832.63
2023-09-16T04:21:15.445Z,93833.25
2023-09-16T04:23:42.843Z,93835.34
2023-09-16T04:26:15.292Z,93833.78
2023-09-16T04:28:43.081Z,93835.13
2023-09-16T04:31:11.021Z,93834.31
2023-09-16T04:33:39.497Z,93830.56
2023-09-16T04:36:07.313Z,93831.88
2023-09-16T04:38:35.060Z,93834.00
2023-09-16T04:41:02.522Z,93837.22
2023-09-16T04:43:31.182Z,93837.00
2023-09-16T04:45:59.560Z,93833.78
2023-09-16T04:48:28.998Z,93834.34
2023-09-16T04:50:56.405Z,93827.44
2023-09-16T04:53:24.058Z,93828.47
2023-09-16T04:55:59.981Z,93823.19
2023-09-16T04:58:27.966Z,93824.25
2023-09-16T05:00:55.506Z,93830.13
2023-09-16T05:03:23.013Z,93831.22
2023-09-16T05:05:53.126Z,93835.44
2023-09-16T05:08:21.654Z,93848.66
2023-09-16T05:10:59.010Z,93858.97
2023-09-16T05:18:35.614Z,93858.72
2023-09-16T05:21:04.283Z,93858.72
2023-09-16T05:23:35.182Z,93863.25
2023-09-16T05:26:06.012Z,93856.59
2023-09-16T05:28:33.786Z,93852.91
2023-09-16T05:31:02.415Z,93862.41
2023-09-16T05:33:31.285Z,93859.78
2023-09-16T05:35:58.660Z,93859.25
2023-09-16T05:38:26.280Z,93854.47
2023-09-16T05:40:54.265Z,93857.91
2023-09-16T05:43:23.321Z,93853.00
2023-09-16T05:45:52.541Z,93858.81
2023-09-16T05:48:20.547Z,93864.63
2023-09-16T05:51:01.419Z,93864.09
2023-09-16T05:53:32.317Z,93867.00
2023-09-16T05:56:03.690Z,93869.88
2023-09-16T05:58:32.353Z,93872.25
2023-09-16T06:00:59.865Z,93871.19
2023-09-16T06:03:28.633Z,93882.03
2023-09-16T06:06:00.643Z,93876.53
2023-09-16T06:08:28.430Z,93883.66
2023-09-16T06:10:57.129Z,93881.53
2023-09-16T06:13:25.213Z,93869.84
2023-09-16T06:15:54.019Z,93870.94
2023-09-16T06:18:23.617Z,93857.44
2023-09-16T06:20:51.040Z,93876.78
2023-09-16T06:23:19.348Z,93895.31
2023-09-16T06:25:48.063Z,93896.09
2023-09-16T06:28:15.811Z,93891.03
2023-09-16T06:30:43.646Z,93902.69
2023-09-16T06:33:11.797Z,93905.06
2023-09-16T06:35:39.185Z,93920.13
2023-09-16T06:38:06.878Z,93912.75
2023-09-16T06:40:34.308Z,93908.28
2023-09-16T06:43:02.377Z,93909.59
2023-09-16T06:45:30.423Z,93896.37
2023-09-16T06:47:58.422Z,93885.22
2023-09-16T06:50:25.909Z,93868.84
2023-09-16T06:52:53.707Z,93839.25
2023-09-16T06:55:21.077Z,93818.09
2023-09-16T06:57:48.832Z,93813.31
2023-09-16T07:00:17.082Z,93794.75
2023-09-16T07:02:44.498Z,93767.53
2023-09-16T07:05:12.082Z,93791.63
2023-09-16T07:07:40.076Z,93849.81
2023-09-16T07:10:08.042Z,93887.59
2023-09-16T07:12:35.424Z,93883.94
2023-09-16T07:15:03.304Z,93876.28
2023-09-16T07:17:33.663Z,93876.28
2023-09-16T07:20:01.296Z,93869.38
2023-09-16T07:22:29.305Z,93874.69
2023-09-16T07:24:57.743Z,93881.78
2023-09-16T07:27:25.264Z,93889.41
2023-09-16T07:29:53.063Z,93898.16
2023-09-16T07:32:20.520Z,93902.56
2023-09-16T07:34:47.863Z,93909.50
2023-09-16T07:37:15.868Z,93902.31
2023-09-16T07:39:46.118Z,93903.75
2023-09-16T07:42:16.340Z,93896.03
2023-09-16T07:44:44.194Z,93901.22
2023-09-16T07:47:11.807Z,93890.09
2023-09-16T07:49:39.282Z,93901.50
2023-09-16T07:52:07.158Z,93910.94
2023-09-16T07:54:34.705Z,93915.12
2023-09-16T07:57:02.247Z,93910.91
2023-09-16T07:59:30.036Z,93904.34
2023-09-16T08:01:57.580Z,93905.28
2023-09-16T08:04:25.640Z,93892.34
2023-09-16T08:06:54.024Z,93891.00
2023-09-16T08:09:22.098Z,93887.03
2023-09-16T08:11:50.020Z,93882.28
2023-09-16T08:14:17.455Z,93871.59
2023-09-16T08:16:45.052Z,93868.53
2023-09-16T08:19:13.682Z,93863.28
2023-09-16T08:21:41.190Z,93856.91
2023-09-16T08:24:08.518Z,93864.50
2023-09-16T08:26:36.560Z,93869.94
2023-09-16T08:29:03.974Z,93870.03
2023-09-16T08:31:31.535Z,93863.63
2023-09-16T08:34:03.238Z,93870.75
2023-09-16T08:36:30.968Z,93886.06
2023-09-16T08:38:58.804Z,93904.66
2023-09-16T08:41:50.106Z,93903.06
2023-09-16T08:44:22.661Z,93913.75
2023-09-16T08:47:00.723Z,93900.59
2023-09-16T08:49:31.874Z,93904.13
2023-09-16T08:52:01.631Z,93911.59
2023-09-16T08:54:34.017Z,93913.66
2023-09-16T08:57:04.274Z,93913.97
2023-09-16T08:59:32.422Z,93909.72
2023-09-16T09:01:59.893Z,93919.66
2023-09-16T09:04:28.731Z,93915.94
2023-09-16T09:06:57.909Z,93916.22
2023-09-16T09:09:25.309Z,93914.47
2023-09-16T09:11:56.476Z,93904.63
2023-09-16T09:14:25.214Z,93906.75
2023-09-16T09:16:55.786Z,93894.75
2023-09-16T09:19:23.595Z,93899.19
2023-09-16T09:21:53.084Z,93890.53
2023-09-16T09:24:20.506Z,93890.03
2023-09-16T09:26:47.856Z,93899.62
2023-09-16T09:29:15.630Z,93900.28
2023-09-16T09:31:45.642Z,93902.13
2023-09-16T09:34:18.095Z,93899.50
2023-09-16T09:36:49.232Z,93901.59
2023-09-16T09:39:16.714Z,93907.53
2023-09-16T09:41:46.969Z,93898.34
2023-09-16T09:44:15.561Z,93901.28
2023-09-16T09:46:43.406Z,93906.97
2023-09-16T09:49:14.048Z,93900.22
2023-09-16T09:51:44.490Z,93905.06
2023-09-16T09:54:12.132Z,93900.25
2023-09-16T09:56:39.940Z,93896.09
2023-09-16T09:59:07.875Z,93890.31
2023-09-16T10:01:36.485Z,93891.91
2023-09-16T10:04:04.757Z,93892.12
2023-09-16T10:06:33.548Z,93899.84
2023-09-16T10:09:00.770Z,93899.84
2023-09-16T10:11:29.853Z,93897.38
2023-09-16T10:13:57.277Z,93898.34
2023-09-16T10:16:25.003Z,93898.16
2023-09-16T10:18:53.507Z,93892.12
2023-09-16T10:21:21.073Z,93899.31
2023-09-16T10:23:48.994Z,93888.75
2023-09-16T10:26:17.773Z,93893.69
2023-09-16T10:28:48.433Z,93883.56
2023-09-16T10:31:17.946Z,93885.91
2023-09-16T10:33:47.210Z,93875.09
2023-09-16T10:36:16.254Z,93881.84
2023-09-16T10:38:44.482Z,93881.41
2023-09-16T10:41:12.303Z,93884.91
2023-09-16T10:43:40.488Z,93886.41
2023-09-16T10:46:08.741Z,93881.06
2023-09-16T10:48:36.745Z,93874.88
2023-09-16T10:51:09.823Z,93868.03
2023-09-16T10:53:42.113Z,93865.31
2023-09-16T10:56:17.889Z,93870.47
2023-09-16T10:58:51.818Z,93867.78
2023-09-16T11:01:38.294Z,93863.44
2023-09-16T11:04:16.075Z,93861.41
2023-09-16T11:06:44.528Z,93858.75
2023-09-16T11:09:12.761Z,93857.19
2023-09-16T11:11:42.483Z,93859.09
2023-09-16T11:14:11.701Z,93857.66
2023-09-16T11:16:46.495Z,93855.13
2023-09-16T11:19:21.352Z,93845.88
2023-09-16T11:21:49.700Z,93848.31
2023-09-16T11:24:17.590Z,93843.37
2023-09-16T11:26:49.635Z,93839.03
2023-09-16T11:29:23.361Z,93831.38
2023-09-16T11:31:51.129Z,93835.00
2023-09-16T11:34:21.606Z,93826.09
2023-09-16T11:36:57.443Z,93835.66
2023-09-16T11:39:41.826Z,93838.09
2023-09-16T11:42:09.943Z,93828.44
2023-09-16T11:44:38.482Z,93828.25
2023-09-16T11:47:06.586Z,93820.72
2023-09-16T11:49:35.300Z,93827.75
2023-09-16T11:52:03.944Z,93820.34
2023-09-16T11:54:31.472Z,93814.34
2023-09-16T11:56:59.517Z,93816.03
2023-09-16T11:59:28.582Z,93804.91
2023-09-16T12:01:56.554Z,93808.03
2023-09-16T12:04:24.838Z,93806.56
2023-09-16T12:06:53.351Z,93801.75
2023-09-16T12:09:23.053Z,93800.66
2023-09-16T12:11:52.732Z,93787.59
2023-09-16T12:14:20.552Z,93794.25
2023-09-16T12:16:48.543Z,93793.59
2023-09-16T12:19:16.488Z,93798.38
2023-09-16T12:21:48.701Z,93787.56
2023-09-16T12:24:24.363Z,93786.34
2023-09-16T12:26:52.382Z,93782.25
2023-09-16T12:29:20.510Z,93777.16
2023-09-16T12:31:49.825Z,93780.97
2023-09-16T12:34:21.099Z,93786.19
2023-09-16T12:36:51.154Z,93776.19
2023-09-16T12:39:21.257Z,93775.34
2023-09-16T12:42:04.595Z,93776.41
2023-09-16T12:44:39.168Z,93780.50
2023-09-16T12:47:07.977Z,93772.00
2023-09-16T12:49:36.323Z,93772.63
2023-09-16T12:52:04.512Z,93764.63
2023-09-16T12:54:33.215Z,93761.75
2023-09-16T12:57:04.349Z,93765.09
2023-09-16T12:59:32.386Z,93761.88
2023-09-16T13:02:04.345Z,93758.37
2023-09-16T13:04:32.338Z,93755.25
2023-09-16T13:07:01.298Z,93754.00
2023-09-16T13:09:32.517Z,93751.59
2023-09-16T13:12:01.892Z,93748.97
2023-09-16T13:14:29.552Z,93749.44
2023-09-16T13:16:57.208Z,93749.06
2023-09-16T13:19:25.834Z,93749.13
2023-09-16T13:21:53.619Z,93755.22
2023-09-16T13:24:21.209Z,93749.69
2023-09-16T13:26:54.431Z,93758.59
2023-09-16T13:29:22.075Z,93754.81
2023-09-16T13:32:04.444Z,93749.25
2023-09-16T13:34:48.438Z,93745.38
2023-09-16T13:37:16.229Z,93746.28
2023-09-16T13:39:48.573Z,93742.47
2023-09-16T13:42:16.673Z,93740.16
2023-09-16T13:44:47.868Z,93744.00
2023-09-16T13:47:16.891Z,93737.72
2023-09-16T13:49:44.704Z,93733.13
2023-09-16T13:52:13.223Z,93734.75
2023-09-16T13:54:41.370Z,93738.00
2023-09-16T13:57:08.842Z,93737.81
2023-09-16T13:59:36.322Z,93735.00
2023-09-16T14:02:04.189Z,93733.91
2023-09-16T14:04:32.024Z,93742.75
2023-09-16T14:06:59.468Z,93731.50
2023-09-16T14:09:27.325Z,93728.09
2023-09-16T14:11:55.134Z,93731.84
2023-09-16T14:14:22.823Z,93735.53
2023-09-16T14:16:50.465Z,93738.88
2023-09-16T14:19:20.967Z,93733.22
2023-09-16T14:21:48.524Z,93736.63
2023-09-16T14:24:15.989Z,93729.94
2023-09-16T14:26:44.294Z,93729.44
2023-09-16T14:29:11.600Z,93728.19
2023-09-16T14:31:39.089Z,93735.16
2023-09-16T14:34:06.996Z,93734.22
2023-09-16T14:36:34.437Z,93732.41
2023-09-16T14:39:01.906Z,93744.28
2023-09-16T14:41:29.660Z,93735.31
2023-09-16T14:43:57.345Z,93740.19
2023-09-16T14:46:24.988Z,93745.63
2023-09-16T14:48:52.937Z,93741.06
2023-09-16T14:51:20.542Z,93733.72
2023-09-16T14:53:48.149Z,93735.87
2023-09-16T14:56:15.900Z,93736.94
2023-09-16T14:58:44.137Z,93733.84
2023-09-16T15:01:11.805Z,93734.72
2023-09-16T15:03:39.802Z,93731.41
2023-09-16T15:06:07.671Z,93735.37
2023-09-16T15:08:35.424Z,93742.13
2023-09-16T15:11:05.195Z,93744.34
2023-09-16T15:13:33.488Z,93745.44
2023-09-16T15:16:03.126Z,93748.22
2023-09-16T15:18:33.059Z,93752.84
2023-09-16T15:21:01.551Z,93744.59
2023-09-16T15:23:30.084Z,93749.34
2023-09-16T15:25:59.191Z,93746.59
2023-09-16T15:28:27.267Z,93752.63
2023-09-16T15:30:54.987Z,93759.28
2023-09-16T15:33:25.207Z,93756.47
2023-09-16T15:35:57.591Z,93751.97
2023-09-16T15:38:26.314Z,93752.03
2023-09-16T15:41:01.790Z,93753.31
2023-09-16T15:43:33.987Z,93747.34
2023-09-16T15:46:04.852Z,93747.25
2023-09-16T15:48:34.157Z,93752.78
2023-09-16T15:51:02.713Z,93756.91
2023-09-16T15:53:34.384Z,93756.88
2023-09-16T15:56:04.988Z,93752.16
2023-09-16T15:58:32.963Z,93757.81
2023-09-16T16:01:00.584Z,93747.50
2023-09-16T16:03:29.169Z,93740.53
2023-09-16T16:05:57.751Z,93750.47
2023-09-16T16:08:25.636Z,93747.19
2023-09-16T16:10:55.350Z,93742.47
2023-09-16T16:13:23.118Z,93744.16
2023-09-16T16:15:52.273Z,93748.59
2023-09-16T16:18:23.300Z,93750.84
2023-09-16T16:20:51.217Z,93754.56
2023-09-16T16:23:18.642Z,93761.28
2023-09-16T16:25:47.461Z,93746.06
2023-09-16T16:28:15.305Z,93758.22
2023-09-16T16:30:43.290Z,93763.44
2023-09-16T16:33:11.095Z,93757.91
2023-09-16T16:35:38.731Z,93765.66
2023-09-16T16:38:06.223Z,93758.72
2023-09-16T16:40:34.739Z,93765.25
2023-09-16T16:43:03.197Z,93768.88
2023-09-16T16:45:30.971Z,93768.59
2023-09-16T16:47:59.025Z,93768.75
2023-09-16T16:50:27.017Z,93766.63
2023-09-16T16:52:54.642Z,93775.78
2023-09-16T16:55:22.515Z,93771.66
2023-09-16T16:57:50.122Z,93772.34
2023-09-16T17:00:17.823Z,93774.91
2023-09-16T17:02:45.643Z,93770.78
2023-09-16T17:05:13.825Z,93783.63
2023-09-16T17:07:45.168Z,93782.25
2023-09-16T17:10:13.737Z,93785.09
2023-09-16T17:12:41.403Z,93789.34
2023-09-16T17:15:10.253Z,93792.09
2023-09-16T17:17:37.963Z,93799.06
2023-09-16T17:20:06.308Z,93803.87
2023-09-16T17:22:33.909Z,93807.62
2023-09-16T17:25:02.407Z,93813.50
2023-09-16T17:27:30.274Z,93814.38
2023-09-16T17:29:57.713Z,93813.72
2023-09-16T17:32:26.231Z,93813.44
2023-09-16T17:34:53.814Z,93828.19
2023-09-16T17:37:22.297Z,93832.16
2023-09-16T17:39:50.014Z,93842.59
2023-09-16T17:42:19.095Z,93854.88
2023-09-16T17:44:47.924Z,93860.44
2023-09-16T17:47:16.726Z,93856.56
2023-09-16T17:49:45.528Z,93864.25
2023-09-16T17:52:14.168Z,93871.34
2023-09-16T17:54:43.434Z,93870.84
2023-09-16T17:57:10.867Z,93875.56
2023-09-16T17:59:38.733Z,93875.25
2023-09-16T18:02:08.149Z,93883.31
2023-09-16T18:04:36.673Z,93880.78
2023-09-16T18:07:04.882Z,93887.69
2023-09-16T18:09:32.345Z,93891.47
2023-09-16T18:12:00.576Z,93892.50
2023-09-16T18:14:28.124Z,93889.19
2023-09-16T18:16:55.730Z,93894.75
2023-09-16T18:19:23.679Z,93901.63
2023-09-16T18:21:51.352Z,93896.78
2023-09-16T18:24:18.943Z,93902.13
2023-09-16T18:26:46.716Z,93907.34
2023-09-16T18:29:14.127Z,93893.50
2023-09-16T18:31:41.597Z,93897.72
2023-09-16T18:34:09.547Z,93898.84
2023-09-16T18:36:37.071Z,93902.97
2023-09-16T18:39:04.703Z,93904.50
2023-09-16T18:41:32.596Z,93905.28
2023-09-16T18:44:05.563Z,93896.94
2023-09-16T18:46:34.515Z,93905.84
2023-09-16T18:49:02.364Z,93909.75
2023-09-16T18:51:30.283Z,93915.06
2023-09-16T18:53:58.112Z,93915.47
2023-09-16T18:56:25.940Z,93906.56
2023-09-16T18:58:53.743Z,93916.72
2023-09-16T19:01:21.811Z,93915.50
2023-09-16T19:03:49.470Z,93919.50
2023-09-16T19:06:16.883Z,93907.59
2023-09-16T19:08:44.691Z,93906.91
2023-09-16T19:11:12.261Z,93914.56
2023-09-16T19:13:39.737Z,93913.50
2023-09-16T19:16:07.596Z,93912.50
2023-09-16T19:18:35.195Z,93913.13
2023-09-16T19:21:02.601Z,93907.16
2023-09-16T19:23:30.412Z,93907.75
2023-09-16T19:25:58.191Z,93905.44
2023-09-16T19:28:25.652Z,93906.78
2023-09-16T19:30:53.899Z,93901.41
2023-09-16T19:33:23.230Z,93900.53
2023-09-16T19:35:51.545Z,93892.62
2023-09-16T19:38:19.359Z,93901.19
2023-09-16T19:40:47.954Z,93902.22
2023-09-16T19:43:15.630Z,93904.81
2023-09-16T19:45:45.447Z,93904.13
2023-09-16T19:48:13.002Z,93905.41
2023-09-16T19:50:42.251Z,93906.38
2023-09-16T19:53:09.933Z,93910.91
2023-09-16T19:55:37.326Z,93908.94
2023-09-16T19:58:05.028Z,93903.63
2023-09-16T20:00:34.013Z,93902.56
2023-09-16T20:03:01.856Z,93905.22
2023-09-16T20:05:29.722Z,93911.00
2023-09-16T20:07:57.194Z,93910.72
2023-09-16T20:10:25.349Z,93910.09
2023-09-16T20:12:52.769Z,93906.66
2023-09-16T20:15:20.361Z,93903.19
2023-09-16T20:17:48.787Z,93901.66
2023-09-16T20:20:16.498Z,93917.63
2023-09-16T20:22:44.007Z,93911.34
2023-09-16T20:25:14.893Z,93903.53
2023-09-16T20:27:44.065Z,93903.91
2023-09-16T20:30:11.990Z,93895.94
2023-09-16T20:32:39.829Z,93900.84
2023-09-16T20:35:07.918Z,93900.19
2023-09-16T20:37:35.826Z,93902.53
2023-09-16T20:40:05.758Z,93906.22
2023-09-16T20:42:34.148Z,93906.78
2023-09-16T20:45:03.037Z,93911.84
2023-09-16T20:47:31.713Z,93910.50
2023-09-16T20:49:59.657Z,93904.75
2023-09-16T20:52:27.637Z,93907.62
2023-09-16T20:54:56.676Z,93899.34
2023-09-16T20:57:24.601Z,93896.84
2023-09-16T20:59:52.473Z,93890.50
2023-09-16T21:02:22.751Z,93888.41
2023-09-16T21:04:50.302Z,93890.53
2023-09-16T21:07:18.140Z,93904.28
2023-09-16T21:09:46.791Z,93900.03
2023-09-16T21:12:14.393Z,93908.75
2023-09-16T21:14:42.215Z,93901.34
2023-09-16T21:17:09.698Z,93895.84
2023-09-16T21:19:37.228Z,93891.88
2023-09-16T21:22:05.214Z,93894.75
2023-09-16T21:24:32.729Z,93886.81
2023-09-16T21:27:00.693Z,93882.03
2023-09-16T21:29:28.497Z,93879.13
2023-09-16T21:32:01.833Z,93875.69
2023-09-16T21:34:31.267Z,93872.00
2023-09-16T21:37:02.310Z,93865.63
2023-09-16T21:39:30.222Z,93871.94
2023-09-16T21:42:00.034Z,93868.22
2023-09-16T21:44:27.597Z,93876.97
2023-09-16T21:46:56.012Z,93879.87
2023-09-16T21:49:23.560Z,93884.84
2023-09-16T21:51:51.165Z,93889.03
2023-09-16T21:54:18.912Z,93883.63
2023-09-16T21:56:46.337Z,93889.16
2023-09-16T21:59:13.782Z,93902.91
2023-09-16T22:01:41.641Z,93892.28
2023-09-16T22:04:11.758Z,93894.41
2023-09-16T22:06:39.322Z,93906.06
2023-09-16T22:09:06.819Z,93907.47
2023-09-16T22:11:34.572Z,93899.53
2023-09-16T22:14:01.992Z,93906.94
2023-09-16T22:16:29.480Z,93905.34
2023-09-16T22:18:57.389Z,93905.47
2023-09-16T22:21:24.826Z,93910.94
2023-09-16T22:23:52.422Z,93916.84
2023-09-16T22:26:20.227Z,93908.97
2023-09-16T22:28:47.722Z,93920.66
2023-09-16T22:31:17.010Z,93918.50
2023-09-16T22:33:44.926Z,93923.75
2023-09-16T22:36:12.339Z,93920.25
2023-09-16T22:38:39.748Z,93921.88
2023-09-16T22:41:07.678Z,93923.19
2023-09-16T22:43:35.102Z,93930.06
2023-09-16T22:46:02.611Z,93927.97
2023-09-16T22:48:30.405Z,93928.25
2023-09-16T22:50:57.950Z,93931.19
2023-09-16T22:53:25.604Z,93939.91
2023-09-16T22:55:53.324Z,93935.41
2023-09-16T22:58:20.809Z,93948.31
2023-09-16T23:00:48.331Z,93945.44
2023-09-16T23:03:16.190Z,93944.09
2023-09-16T23:05:43.673Z,93948.31
2023-09-16T23:08:11.079Z,93943.25
2023-09-16T23:10:39.314Z,93944.25
2023-09-16T23:13:06.726Z,93937.00
2023-09-16T23:15:34.107Z,93941.19
2023-09-16T23:18:01.831Z,93939.38
2023-09-16T23:20:29.212Z,93938.66
2023-09-16T23:22:57.167Z,93932.28
2023-09-16T23:25:24.801Z,93933.34
2023-09-16T23:27:52.153Z,93941.50
2023-09-16T23:30:19.468Z,93940.25
2023-09-16T23:32:47.375Z,93938.97
2023-09-16T23:35:14.719Z,93938.69
2023-09-16T23:37:42.015Z,93929.44
2023-09-16T23:40:10.317Z,93928.69
2023-09-16T23:42:37.643Z,93929.19
2023-09-16T23:45:05.809Z,93934.22
2023-09-16T23:47:33.494Z,93929.75
2023-09-16T23:50:00.731Z,93927.34
2023-09-16T23:52:28.215Z,93929.97
2023-09-16T23:54:56.029Z,93922.31
2023-09-16T23:57:23.287Z,93928.94
2023-09-16T23:59:50.694Z,93921.25
